createdAt,value
2018-05-13T00:01:26.676Z,5.03
2018-05-13T00:03:56.591Z,5.70
2018-05-13T00:06:25.469Z,6.70
2018-05-13T00:08:57.506Z,6.77
2018-05-13T00:11:26.336Z,6.07
2018-05-13T00:13:54.871Z,5.83
2018-05-13T00:16:23.141Z,6.70
2018-05-13T00:18:52.045Z,6.70
2018-05-13T00:21:20.325Z,5.90
2018-05-13T00:23:49.260Z,6.40
2018-05-13T00:26:18.428Z,6.40
2018-05-13T00:28:48.336Z,6.27
2018-05-13T00:31:20.624Z,6.43
2018-05-13T00:33:48.912Z,6.00
2018-05-13T00:36:17.187Z,5.83
2018-05-13T00:38:45.956Z,5.60
2018-05-13T00:41:14.040Z,5.97
2018-05-13T00:43:42.829Z,5.47
2018-05-13T00:46:11.008Z,5.83
2018-05-13T00:48:39.771Z,6.63
2018-05-13T00:51:08.544Z,6.03
2018-05-13T00:53:37.365Z,5.63
2018-05-13T00:56:06.622Z,6.30
2018-05-13T00:58:34.906Z,6.37
2018-05-13T01:01:03.178Z,6.10
2018-05-13T01:03:32.099Z,6.23
2018-05-13T01:06:01.008Z,6.70
2018-05-13T01:08:30.388Z,6.47
2018-05-13T01:10:58.604Z,5.80
2018-05-13T01:13:29.284Z,6.70
2018-05-13T01:15:57.585Z,7.40
2018-05-13T01:18:26.811Z,6.77
2018-05-13T01:20:55.768Z,6.73
2018-05-13T01:23:24.208Z,6.90
2018-05-13T01:25:52.315Z,6.77
2018-05-13T01:28:20.644Z,6.83
2018-05-13T01:30:49.418Z,6.80
2018-05-13T01:33:18.271Z,7.07
2018-05-13T01:35:46.624Z,6.70
2018-05-13T01:38:14.758Z,6.73
2018-05-13T01:40:42.840Z,6.23
2018-05-13T01:43:11.674Z,6.83
2018-05-13T01:45:39.853Z,7.20
2018-05-13T01:48:08.131Z,6.33
2018-05-13T01:50:37.102Z,6.10
2018-05-13T01:53:05.435Z,6.80
2018-05-13T01:55:34.542Z,6.97
2018-05-13T01:58:03.127Z,7.07
2018-05-13T02:00:31.993Z,7.20
2018-05-13T02:03:00.325Z,6.43
2018-05-13T02:05:29.500Z,6.53
2018-05-13T02:07:58.324Z,7.10
2018-05-13T02:10:27.170Z,6.20
2018-05-13T02:12:56.844Z,7.00
2018-05-13T02:15:25.714Z,6.53
2018-05-13T02:17:54.195Z,6.60
2018-05-13T02:20:22.432Z,7.30
2018-05-13T02:22:51.268Z,6.30
2018-05-13T02:25:20.173Z,6.70
2018-05-13T02:27:48.492Z,6.83
2018-05-13T02:30:17.632Z,6.20
2018-05-13T02:32:45.816Z,6.27
2018-05-13T02:35:13.951Z,7.17
2018-05-13T02:37:42.250Z,6.87
2018-05-13T02:40:11.063Z,6.30
2018-05-13T02:42:39.555Z,6.30
2018-05-13T02:45:07.630Z,6.80
2018-05-13T02:47:36.389Z,6.97
2018-05-13T02:50:04.812Z,6.70
2018-05-13T02:52:33.684Z,6.87
2018-05-13T02:55:02.863Z,7.30
2018-05-13T02:57:31.081Z,7.03
2018-05-13T02:59:59.916Z,7.00
2018-05-13T03:02:28.715Z,6.97
2018-05-13T03:04:57.492Z,7.10
2018-05-13T03:07:28.325Z,7.80
2018-05-13T03:09:56.619Z,7.53
2018-05-13T03:12:24.789Z,7.70
2018-05-13T03:14:53.060Z,7.10
2018-05-13T03:17:21.361Z,7.47
2018-05-13T03:19:49.716Z,7.27
2018-05-13T03:22:17.993Z,6.80
2018-05-13T03:24:46.788Z,6.80
2018-05-13T03:27:15.044Z,6.50
2018-05-13T03:29:44.043Z,6.90
2018-05-13T03:32:12.343Z,7.67
2018-05-13T03:34:42.041Z,7.40
2018-05-13T03:37:12.007Z,8.30
2018-05-13T03:39:40.101Z,8.27
2018-05-13T03:42:08.403Z,9.00
2018-05-13T03:44:36.888Z,9.40
2018-05-13T03:47:05.832Z,10.17
2018-05-13T03:49:34.019Z,8.77
2018-05-13T03:52:02.229Z,9.43
2018-05-13T03:54:32.144Z,10.77
2018-05-13T03:57:00.408Z,11.40
2018-05-13T03:59:29.796Z,10.87
2018-05-13T04:01:58.663Z,9.40
2018-05-13T04:04:26.919Z,9.63
2018-05-13T04:06:55.335Z,9.43
2018-05-13T04:09:42.487Z,9.50
2018-05-13T04:12:29.124Z,8.43
2018-05-13T04:18:07.671Z,8.50
2018-05-13T04:20:36.520Z,9.10
2018-05-13T04:23:06.252Z,9.20
2018-05-13T04:25:34.495Z,9.57
2018-05-13T04:28:02.795Z,9.13
2018-05-13T04:30:32.374Z,10.10
2018-05-13T04:33:01.184Z,10.23
2018-05-13T04:35:30.397Z,9.10
2018-05-13T04:37:59.653Z,9.53
2018-05-13T04:40:27.967Z,9.73
2018-05-13T04:42:56.847Z,10.47
2018-05-13T04:45:25.223Z,9.77
2018-05-13T04:47:53.679Z,10.00
2018-05-13T04:50:22.530Z,10.23
2018-05-13T04:52:50.884Z,10.53
2018-05-13T04:55:19.664Z,9.50
2018-05-13T04:57:47.951Z,10.67
2018-05-13T05:00:16.206Z,9.97
2018-05-13T05:02:45.009Z,10.80
2018-05-13T05:05:13.257Z,10.33
2018-05-13T05:07:42.278Z,10.67
2018-05-13T05:10:10.581Z,10.37
2018-05-13T05:12:39.333Z,11.00
2018-05-13T05:15:07.816Z,9.87
2018-05-13T05:17:36.608Z,10.17
2018-05-13T05:20:05.403Z,8.70
2018-05-13T05:22:33.651Z,10.40
2018-05-13T05:25:02.754Z,10.60
2018-05-13T05:27:34.087Z,10.90
2018-05-13T05:30:03.187Z,11.27
2018-05-13T05:32:33.099Z,11.87
2018-05-13T05:35:01.390Z,10.50
2018-05-13T05:37:29.697Z,11.40
2018-05-13T05:39:58.757Z,10.83
2018-05-13T05:42:27.996Z,10.27
2018-05-13T05:44:56.282Z,10.93
2018-05-13T05:47:25.960Z,10.67
2018-05-13T05:49:55.096Z,11.60
2018-05-13T05:52:23.886Z,10.33
2018-05-13T05:54:53.076Z,12.10
2018-05-13T05:57:21.400Z,11.57
2018-05-13T05:59:49.691Z,11.03
2018-05-13T06:02:17.890Z,11.80
2018-05-13T06:04:46.099Z,11.93
2018-05-13T06:07:14.211Z,11.57
2018-05-13T06:09:42.417Z,11.83
2018-05-13T06:12:10.616Z,12.00
2018-05-13T06:14:38.677Z,11.27
2018-05-13T06:17:07.575Z,13.57
2018-05-13T06:19:35.757Z,12.90
2018-05-13T06:22:04.053Z,12.33
2018-05-13T06:24:32.212Z,13.47
2018-05-13T06:27:00.980Z,12.40
2018-05-13T06:29:29.075Z,12.17
2018-05-13T06:31:58.010Z,11.93
2018-05-13T06:34:26.817Z,12.20
2018-05-13T06:36:55.124Z,11.00
2018-05-13T06:39:24.012Z,11.87
2018-05-13T06:41:52.569Z,12.47
2018-05-13T06:44:20.778Z,13.10
2018-05-13T06:46:50.731Z,11.17
2018-05-13T06:49:19.088Z,11.57
2018-05-13T06:51:47.903Z,12.30
2018-05-13T06:54:16.215Z,11.40
2018-05-13T06:56:44.435Z,11.50
2018-05-13T06:59:12.610Z,12.80
2018-05-13T07:01:43.102Z,13.27
2018-05-13T07:04:11.872Z,12.87
2018-05-13T07:06:40.213Z,14.03
2018-05-13T07:09:08.547Z,13.30
2018-05-13T07:11:36.840Z,14.90
2018-05-13T07:14:04.946Z,14.07
2018-05-13T07:16:34.908Z,14.13
2018-05-13T07:19:03.187Z,14.93
2018-05-13T07:21:31.480Z,16.17
2018-05-13T07:23:59.827Z,15.13
2018-05-13T07:26:28.947Z,15.77
2018-05-13T07:28:57.193Z,14.10
2018-05-13T07:31:25.424Z,15.57
2018-05-13T07:33:53.491Z,14.73
2018-05-13T07:36:23.048Z,17.00
2018-05-13T07:38:51.821Z,16.30
2018-05-13T07:41:23.619Z,16.60
2018-05-13T07:43:53.135Z,18.10
2018-05-13T07:46:21.447Z,17.53
2018-05-13T07:48:51.428Z,17.80
2018-05-13T07:51:20.486Z,16.80
2018-05-13T07:53:48.804Z,18.27
2018-05-13T07:56:17.628Z,19.47
2018-05-13T07:58:47.248Z,18.50
2018-05-13T08:01:15.855Z,21.53
2018-05-13T08:03:44.118Z,20.17
2018-05-13T08:06:12.351Z,20.77
2018-05-13T08:08:41.300Z,20.30
2018-05-13T08:11:09.665Z,22.23
2018-05-13T08:13:39.372Z,22.57
2018-05-13T08:16:08.165Z,22.70
2018-05-13T08:18:36.637Z,21.97
2018-05-13T08:21:05.372Z,20.23
2018-05-13T08:23:34.244Z,20.20
2018-05-13T08:26:03.916Z,22.20
2018-05-13T08:28:35.723Z,21.87
2018-05-13T08:31:04.599Z,23.03
2018-05-13T08:33:32.905Z,24.80
2018-05-13T08:36:01.776Z,27.60
2018-05-13T08:38:30.092Z,28.80
2018-05-13T08:40:58.279Z,29.40
2018-05-13T08:43:26.699Z,30.60
2018-05-13T08:45:55.461Z,31.37
2018-05-13T08:48:24.287Z,29.17
2018-05-13T08:50:53.345Z,31.93
2018-05-13T08:53:22.487Z,33.83
2018-05-13T08:55:51.332Z,33.43
2018-05-13T08:58:20.165Z,34.27
2018-05-13T09:00:49.475Z,35.37
2018-05-13T09:03:18.099Z,37.10
2018-05-13T09:05:47.019Z,36.77
2018-05-13T09:08:15.321Z,36.77
2018-05-13T09:10:44.160Z,37.73
2018-05-13T09:13:13.003Z,37.33
2018-05-13T09:15:41.656Z,40.47
2018-05-13T09:18:10.422Z,38.97
2018-05-13T09:20:38.582Z,43.03
2018-05-13T09:23:07.583Z,39.90
2018-05-13T09:25:35.700Z,49.60
2018-05-13T09:28:03.975Z,46.03
2018-05-13T09:30:32.747Z,44.33
2018-05-13T09:33:00.891Z,47.57
2018-05-13T09:35:29.755Z,49.77
2018-05-13T09:37:58.008Z,49.53
2018-05-13T09:40:26.256Z,52.03
2018-05-13T09:42:54.520Z,51.60
2018-05-13T09:45:23.264Z,52.07
2018-05-13T09:47:52.672Z,53.77
2018-05-13T09:50:21.427Z,54.57
2018-05-13T09:52:49.671Z,56.07
2018-05-13T09:55:18.400Z,84.90
2018-05-13T09:57:47.972Z,57.47
2018-05-13T10:00:16.770Z,60.20
2018-05-13T10:02:45.323Z,63.13
2018-05-13T10:05:14.558Z,61.77
2018-05-13T10:07:42.863Z,59.40
2018-05-13T10:10:10.941Z,60.33
2018-05-13T10:12:40.611Z,63.07
2018-05-13T10:15:09.395Z,62.60
2018-05-13T10:17:38.064Z,63.07
2018-05-13T10:20:06.237Z,63.90
2018-05-13T10:22:36.007Z,63.87
2018-05-13T10:25:04.870Z,62.97
2018-05-13T10:27:33.692Z,68.50
2018-05-13T10:30:02.068Z,64.43
2018-05-13T10:32:30.268Z,67.33
2018-05-13T10:34:59.916Z,66.77
2018-05-13T10:37:28.746Z,65.43
2018-05-13T10:39:59.792Z,65.93
2018-05-13T10:42:28.686Z,70.97
2018-05-13T10:44:56.959Z,72.10
2018-05-13T10:47:25.032Z,69.13
2018-05-13T10:49:54.804Z,67.70
2018-05-13T10:52:23.697Z,69.20
2018-05-13T10:54:52.545Z,74.13
2018-05-13T10:57:21.269Z,67.97
2018-05-13T10:59:49.392Z,67.27
2018-05-13T11:02:18.296Z,68.83
2018-05-13T11:04:47.882Z,71.47
2018-05-13T11:07:16.136Z,65.77
2018-05-13T11:09:44.392Z,66.47
2018-05-13T11:12:12.640Z,69.03
2018-05-13T11:14:41.215Z,65.77
2018-05-13T11:17:10.056Z,69.53
2018-05-13T11:19:40.327Z,68.60
2018-05-13T11:22:09.300Z,67.77
2018-05-13T11:24:37.464Z,63.20
2018-05-13T11:27:07.433Z,67.00
2018-05-13T11:29:36.244Z,65.47
2018-05-13T11:32:05.169Z,65.67
2018-05-13T11:34:34.938Z,61.70
2018-05-13T11:37:04.153Z,66.07
2018-05-13T11:39:32.256Z,63.40
2018-05-13T11:42:00.427Z,60.10
2018-05-13T11:44:28.960Z,57.13
2018-05-13T11:46:57.156Z,58.67
2018-05-13T11:49:26.121Z,58.40
2018-05-13T11:51:54.535Z,58.83
2018-05-13T11:54:22.764Z,55.90
2018-05-13T11:56:51.880Z,56.27
2018-05-13T11:59:20.642Z,56.00
2018-05-13T12:01:48.793Z,51.03
2018-05-13T12:04:17.641Z,50.97
2018-05-13T12:06:46.748Z,51.27
2018-05-13T12:09:15.638Z,48.00
2018-05-13T12:11:43.999Z,49.20
2018-05-13T12:14:12.239Z,49.67
2018-05-13T12:16:41.247Z,50.53
2018-05-13T12:19:09.383Z,54.80
2018-05-13T12:21:38.272Z,50.47
2018-05-13T12:24:06.509Z,52.43
2018-05-13T12:26:34.596Z,52.67
2018-05-13T12:29:02.986Z,49.30
2018-05-13T12:31:34.663Z,49.63
2018-05-13T12:34:02.746Z,48.77
2018-05-13T12:36:31.815Z,45.30
2018-05-13T12:38:59.936Z,45.93
2018-05-13T12:41:28.241Z,47.73
2018-05-13T12:43:56.633Z,46.60
2018-05-13T12:46:25.385Z,45.03
2018-05-13T12:48:53.492Z,47.60
2018-05-13T12:51:22.151Z,46.07
2018-05-13T12:53:54.281Z,42.73
2018-05-13T12:56:24.052Z,47.30
2018-05-13T12:58:52.756Z,46.90
2018-05-13T13:01:21.102Z,59.83
2018-05-13T13:03:49.251Z,47.00
2018-05-13T13:06:17.439Z,51.17
2018-05-13T13:08:46.228Z,47.17
2018-05-13T13:11:14.420Z,47.07
2018-05-13T13:13:43.204Z,47.47
2018-05-13T13:16:11.543Z,48.27
2018-05-13T13:18:41.228Z,48.40
2018-05-13T13:21:10.254Z,49.20
2018-05-13T13:23:39.102Z,46.83
2018-05-13T13:26:07.989Z,47.80
2018-05-13T13:28:36.765Z,47.60
2018-05-13T13:31:05.559Z,48.07
2018-05-13T13:33:33.907Z,45.53
2018-05-13T13:36:04.485Z,46.47
2018-05-13T13:38:32.565Z,48.07
2018-05-13T13:41:00.908Z,48.27
2018-05-13T13:43:29.268Z,45.97
2018-05-13T13:45:57.575Z,46.70
2018-05-13T13:48:25.772Z,49.17
2018-05-13T13:50:54.160Z,52.47
2018-05-13T13:53:22.964Z,48.57
2018-05-13T13:55:51.165Z,52.47
2018-05-13T13:58:19.958Z,49.90
2018-05-13T14:00:48.343Z,50.87
2018-05-13T14:03:16.634Z,50.67
2018-05-13T14:05:44.836Z,50.23
2018-05-13T14:08:13.995Z,52.13
2018-05-13T14:10:42.296Z,50.93
2018-05-13T14:13:10.626Z,51.07
2018-05-13T14:15:39.489Z,51.00
2018-05-13T14:18:08.562Z,52.27
2018-05-13T14:20:37.055Z,48.00
2018-05-13T14:23:05.344Z,46.43
2018-05-13T14:25:36.502Z,50.27
2018-05-13T14:28:04.811Z,49.27
2018-05-13T14:30:34.309Z,49.20
2018-05-13T14:33:02.643Z,50.27
2018-05-13T14:35:31.676Z,54.80
2018-05-13T14:38:00.606Z,52.50
2018-05-13T14:40:30.775Z,49.83
2018-05-13T14:42:59.103Z,47.77
2018-05-13T14:45:27.937Z,51.13
2018-05-13T14:47:56.689Z,54.53
2018-05-13T14:50:27.323Z,59.27
2018-05-13T14:52:55.972Z,61.60
2018-05-13T14:55:24.852Z,62.17
2018-05-13T14:57:53.676Z,65.70
2018-05-13T15:00:22.998Z,62.17
2018-05-13T15:02:51.139Z,60.50
2018-05-13T15:05:19.876Z,63.70
2018-05-13T15:07:48.632Z,65.10
2018-05-13T15:10:16.992Z,66.87
2018-05-13T15:12:45.321Z,66.40
2018-05-13T15:15:13.531Z,65.30
2018-05-13T15:17:41.618Z,64.30
2018-05-13T15:20:10.040Z,69.30
2018-05-13T15:22:39.995Z,73.50
2018-05-13T15:25:08.105Z,84.50
2018-05-13T15:27:37.246Z,76.90
2018-05-13T15:30:06.189Z,76.30
2018-05-13T15:32:35.045Z,70.20
2018-05-13T15:35:04.344Z,76.27
2018-05-13T15:37:32.471Z,61.43
2018-05-13T15:40:01.408Z,62.40
2018-05-13T15:42:29.722Z,68.87
2018-05-13T15:44:57.856Z,71.43
2018-05-13T15:47:26.249Z,60.40
2018-05-13T15:49:55.884Z,60.20
2018-05-13T15:52:24.150Z,58.50
2018-05-13T15:54:52.310Z,56.43
2018-05-13T15:57:20.366Z,62.23
2018-05-13T15:59:48.717Z,60.97
2018-05-13T16:02:17.756Z,58.03
2018-05-13T16:04:46.237Z,54.77
2018-05-13T16:07:20.346Z,63.83
2018-05-13T16:09:48.612Z,63.23
2018-05-13T16:12:16.858Z,68.17
2018-05-13T16:14:46.800Z,72.70
2018-05-13T16:17:15.111Z,64.67
2018-05-13T16:19:43.377Z,67.13
2018-05-13T16:22:12.168Z,68.27
2018-05-13T16:24:40.263Z,65.87
2018-05-13T16:27:08.568Z,66.07
2018-05-13T16:29:37.661Z,59.90
2018-05-13T16:32:05.857Z,62.30
2018-05-13T16:34:34.186Z,52.57
2018-05-13T16:37:02.345Z,52.90
2018-05-13T16:39:31.254Z,49.63
2018-05-13T16:41:59.825Z,47.77
2018-05-13T16:44:28.180Z,49.53
2018-05-13T16:46:56.379Z,48.70
2018-05-13T16:49:24.956Z,50.70
2018-05-13T16:51:55.659Z,51.97
2018-05-13T16:54:23.972Z,48.83
2018-05-13T16:56:52.835Z,47.30
2018-05-13T16:59:21.936Z,51.43
2018-05-13T17:01:50.365Z,50.47
2018-05-13T17:04:19.178Z,51.20
2018-05-13T17:06:47.285Z,51.07
2018-05-13T17:09:16.555Z,52.33
2018-05-13T17:11:44.736Z,53.10
2018-05-13T17:14:12.958Z,53.57
2018-05-13T17:16:41.821Z,53.73
2018-05-13T17:19:09.938Z,54.97
2018-05-13T17:21:38.205Z,51.83
2018-05-13T17:24:07.284Z,52.70
2018-05-13T17:26:35.628Z,52.93
2018-05-13T17:29:04.117Z,51.03
2018-05-13T17:31:32.668Z,49.83
2018-05-13T17:34:03.034Z,50.33
2018-05-13T17:36:31.395Z,52.97
2018-05-13T17:38:59.509Z,50.57
2018-05-13T17:41:27.860Z,50.17
2018-05-13T17:43:58.494Z,52.80
2018-05-13T17:46:26.899Z,52.73
2018-05-13T17:48:59.137Z,51.10
2018-05-13T17:51:30.729Z,50.60
2018-05-13T17:54:01.741Z,50.63
2018-05-13T17:56:33.553Z,49.70
2018-05-13T17:59:03.326Z,49.50
2018-05-13T18:01:31.643Z,48.30
2018-05-13T18:04:02.216Z,49.70
2018-05-13T18:06:31.158Z,49.07
2018-05-13T18:09:04.648Z,49.27
2018-05-13T18:11:37.414Z,51.50
2018-05-13T18:14:05.652Z,51.00
2018-05-13T18:16:33.764Z,49.87
2018-05-13T18:19:03.233Z,49.00
2018-05-13T18:21:32.569Z,53.60
2018-05-13T18:24:06.693Z,53.37
2018-05-13T18:26:36.957Z,55.40
2018-05-13T18:29:06.688Z,57.20
2018-05-13T18:31:35.266Z,54.83
2018-05-13T18:34:04.197Z,54.43
2018-05-13T18:36:33.418Z,57.77
2018-05-13T18:39:04.702Z,55.97
2018-05-13T18:41:36.212Z,58.70
2018-05-13T18:44:07.113Z,55.60
2018-05-13T18:46:35.801Z,59.27
2018-05-13T18:49:04.133Z,58.93
2018-05-13T18:51:33.505Z,61.77
2018-05-13T18:54:01.969Z,61.40
2018-05-13T18:56:34.016Z,60.70
2018-05-13T18:59:02.189Z,61.43
2018-05-13T19:01:32.029Z,61.00
2018-05-13T19:04:00.990Z,63.00
2018-05-13T19:06:35.411Z,63.50
2018-05-13T19:09:03.541Z,65.33
2018-05-13T19:11:35.211Z,67.97
2018-05-13T19:14:04.554Z,71.27
2018-05-13T19:16:35.832Z,69.93
2018-05-13T19:19:08.544Z,70.70
2018-05-13T19:21:36.968Z,68.40
2018-05-13T19:24:09.263Z,69.10
2018-05-13T19:26:39.256Z,68.33
2018-05-13T19:29:08.986Z,67.60
2018-05-13T19:31:38.208Z,71.27
2018-05-13T19:34:08.468Z,70.00
2018-05-13T19:36:37.297Z,73.67
2018-05-13T19:39:05.803Z,74.10
2018-05-13T19:41:34.944Z,70.20
2018-05-13T19:44:05.868Z,72.60
2018-05-13T19:46:39.144Z,67.67
2018-05-13T19:49:11.288Z,73.00
2018-05-13T19:51:45.880Z,68.90
2018-05-13T19:54:14.231Z,70.67
2018-05-13T19:56:43.061Z,66.53
2018-05-13T19:59:12.043Z,66.47
2018-05-13T20:01:40.876Z,70.37
2018-05-13T20:04:10.512Z,68.60
2018-05-13T20:06:38.996Z,67.97
2018-05-13T20:09:07.196Z,67.30
2018-05-13T20:11:35.600Z,66.30
2018-05-13T20:14:04.717Z,66.30
2018-05-13T20:16:34.284Z,65.67
2018-05-13T20:19:02.544Z,70.10
2018-05-13T20:21:30.707Z,70.30
2018-05-13T20:23:58.818Z,70.00
2018-05-13T20:26:27.368Z,75.43
2018-05-13T20:28:58.754Z,72.70
2018-05-13T20:31:27.547Z,71.00
2018-05-13T20:33:56.412Z,68.60
2018-05-13T20:36:24.660Z,70.83
2018-05-13T20:38:53.063Z,72.47
2018-05-13T20:41:21.131Z,72.57
2018-05-13T20:43:49.452Z,69.57
2018-05-13T20:46:18.220Z,68.50
2018-05-13T20:48:47.069Z,68.37
2018-05-13T20:51:15.443Z,63.67
2018-05-13T20:53:43.876Z,68.23
2018-05-13T20:56:12.213Z,68.80
2018-05-13T20:58:41.020Z,70.40
2018-05-13T21:01:10.233Z,65.17
2018-05-13T21:03:39.091Z,66.70
2018-05-13T21:06:07.345Z,64.50
2018-05-13T21:08:35.648Z,64.90
2018-05-13T21:11:04.780Z,65.43
2018-05-13T21:13:33.648Z,66.00
2018-05-13T21:16:01.856Z,85.80
2018-05-13T21:18:30.032Z,67.20
2018-05-13T21:20:59.081Z,68.67
2018-05-13T21:23:27.955Z,72.37
2018-05-13T21:25:56.753Z,69.23
2018-05-13T21:28:25.540Z,67.30
2018-05-13T21:30:54.045Z,70.37
2018-05-13T21:33:22.365Z,69.33
2018-05-13T21:35:50.671Z,69.07
2018-05-13T21:38:19.683Z,70.67
2018-05-13T21:40:47.845Z,70.53
2018-05-13T21:43:16.179Z,70.97
2018-05-13T21:45:45.053Z,69.50
2018-05-13T21:48:14.105Z,73.33
2018-05-13T21:50:42.424Z,70.60
2018-05-13T21:53:10.533Z,69.60
2018-05-13T21:55:40.364Z,71.87
2018-05-13T21:58:08.796Z,74.00
2018-05-13T22:00:37.668Z,70.87
2018-05-13T22:03:06.536Z,73.07
2018-05-13T22:05:35.338Z,72.93
2018-05-13T22:08:03.648Z,76.57
2018-05-13T22:10:31.928Z,74.47
2018-05-13T22:13:00.962Z,74.77
2018-05-13T22:15:29.970Z,72.00
2018-05-13T22:17:59.486Z,73.03
2018-05-13T22:20:27.681Z,74.27
2018-05-13T22:22:56.544Z,73.20
2018-05-13T22:25:25.422Z,73.10
2018-05-13T22:27:53.835Z,71.67
2018-05-13T22:30:22.761Z,73.17
2018-05-13T22:32:52.316Z,71.20
2018-05-13T22:35:21.340Z,76.70
2018-05-13T22:37:50.225Z,73.80
2018-05-13T22:40:19.096Z,73.87
2018-05-13T22:42:47.444Z,74.63
2018-05-13T22:45:15.728Z,75.47
2018-05-13T22:47:44.729Z,74.80
2018-05-13T22:50:12.978Z,74.90
2018-05-13T22:52:41.919Z,74.23
2018-05-13T22:55:11.109Z,76.07
2018-05-13T22:57:39.401Z,76.27
2018-05-13T23:00:08.616Z,73.10
2018-05-13T23:02:36.873Z,74.27
2018-05-13T23:05:05.953Z,75.20
2018-05-13T23:07:34.727Z,76.40
2018-05-13T23:10:03.155Z,77.47
2018-05-13T23:12:31.752Z,77.70
2018-05-13T23:15:01.015Z,78.10
2018-05-13T23:17:29.212Z,77.97
2018-05-13T23:19:59.316Z,79.20
2018-05-13T23:22:35.093Z,82.40
2018-05-13T23:25:03.518Z,80.63
2018-05-13T23:27:33.211Z,81.47
2018-05-13T23:30:01.517Z,83.37
2018-05-13T23:32:29.773Z,85.33
2018-05-13T23:34:58.353Z,84.40
2018-05-13T23:37:26.648Z,81.80
2018-05-13T23:39:54.801Z,89.00
2018-05-13T23:42:24.026Z,87.60
2018-05-13T23:44:54.237Z,87.90
2018-05-13T23:47:25.177Z,94.07
2018-05-13T23:49:53.536Z,148.70
2018-05-13T23:52:21.931Z,84.33
2018-05-13T23:54:51.965Z,86.17
2018-05-13T23:57:20.593Z,85.13
2018-05-13T23:59:55.073Z,80.83
